sensor_id;sensor_type;location;lat;lon;timestamp;temperature;humidity
52979;DHT22;51106;53.186;6.598;2022-09-02T00:01:34;13.60;97.10
52979;DHT22;51106;53.186;6.598;2022-09-02T00:03:38;13.60;97.10
52979;DHT22;51106;53.186;6.598;2022-09-02T00:05:40;13.60;97.20
52979;DHT22;51106;53.186;6.598;2022-09-02T00:07:42;13.50;97.30
52979;DHT22;51106;53.186;6.598;2022-09-02T00:09:44;13.50;97.40
52979;DHT22;51106;53.186;6.598;2022-09-02T00:11:48;13.50;97.50
52979;DHT22;51106;53.186;6.598;2022-09-02T00:13:50;13.60;97.30
52979;DHT22;51106;53.186;6.598;2022-09-02T00:15:53;13.50;97.20
52979;DHT22;51106;53.186;6.598;2022-09-02T00:17:56;13.40;97.40
52979;DHT22;51106;53.186;6.598;2022-09-02T00:19:59;13.40;97.30
52979;DHT22;51106;53.186;6.598;2022-09-02T00:22:01;13.40;97.30
52979;DHT22;51106;53.186;6.598;2022-09-02T00:24:04;13.40;97.40
52979;DHT22;51106;53.186;6.598;2022-09-02T00:26:06;13.40;97.40
52979;DHT22;51106;53.186;6.598;2022-09-02T00:28:10;13.30;97.30
52979;DHT22;51106;53.186;6.598;2022-09-02T00:30:12;13.30;97.40
52979;DHT22;51106;53.186;6.598;2022-09-02T00:32:16;13.30;97.40
52979;DHT22;51106;53.186;6.598;2022-09-02T00:34:18;13.20;97.50
52979;DHT22;51106;53.186;6.598;2022-09-02T00:36:20;13.30;97.70
52979;DHT22;51106;53.186;6.598;2022-09-02T00:38:22;13.10;98.00
52979;DHT22;51106;53.186;6.598;2022-09-02T00:40:24;13.10;98.00
52979;DHT22;51106;53.186;6.598;2022-09-02T00:42:27;13.10;98.10
52979;DHT22;51106;53.186;6.598;2022-09-02T00:44:29;13.00;98.10
52979;DHT22;51106;53.186;6.598;2022-09-02T00:46:32;13.00;98.10
52979;DHT22;51106;53.186;6.598;2022-09-02T00:48:36;12.90;98.00
52979;DHT22;51106;53.186;6.598;2022-09-02T00:50:41;12.90;97.90
52979;DHT22;51106;53.186;6.598;2022-09-02T00:52:51;12.80;97.90
52979;DHT22;51106;53.186;6.598;2022-09-02T00:55:21;12.80;98.10
52979;DHT22;51106;53.186;6.598;2022-09-02T00:57:29;12.80;98.20
52979;DHT22;51106;53.186;6.598;2022-09-02T00:59:45;12.80;98.10
52979;DHT22;51106;53.186;6.598;2022-09-02T01:01:49;12.80;98.10
52979;DHT22;51106;53.186;6.598;2022-09-02T01:03:52;12.80;97.80
52979;DHT22;51106;53.186;6.598;2022-09-02T01:05:55;12.70;97.90
52979;DHT22;51106;53.186;6.598;2022-09-02T01:07:58;12.80;97.90
52979;DHT22;51106;53.186;6.598;2022-09-02T01:10:01;12.70;97.90
52979;DHT22;51106;53.186;6.598;2022-09-02T01:12:04;12.70;98.10
52979;DHT22;51106;53.186;6.598;2022-09-02T01:14:06;12.70;98.20
52979;DHT22;51106;53.186;6.598;2022-09-02T01:16:17;12.60;98.30
52979;DHT22;51106;53.186;6.598;2022-09-02T01:18:24;12.60;98.40
52979;DHT22;51106;53.186;6.598;2022-09-02T01:20:30;12.50;98.40
52979;DHT22;51106;53.186;6.598;2022-09-02T01:22:32;12.50;98.60
52979;DHT22;51106;53.186;6.598;2022-09-02T01:24:34;12.50;98.60
52979;DHT22;51106;53.186;6.598;2022-09-02T01:26:36;12.50;98.60
52979;DHT22;51106;53.186;6.598;2022-09-02T01:28:38;12.50;98.70
52979;DHT22;51106;53.186;6.598;2022-09-02T01:30:45;12.30;98.80
52979;DHT22;51106;53.186;6.598;2022-09-02T01:32:48;12.30;98.90
52979;DHT22;51106;53.186;6.598;2022-09-02T01:34:50;12.30;99.00
52979;DHT22;51106;53.186;6.598;2022-09-02T01:36:53;12.30;99.00
52979;DHT22;51106;53.186;6.598;2022-09-02T01:38:55;12.30;99.10
52979;DHT22;51106;53.186;6.598;2022-09-02T01:40:57;12.30;99.10
52979;DHT22;51106;53.186;6.598;2022-09-02T01:43:11;12.30;99.00
52979;DHT22;51106;53.186;6.598;2022-09-02T01:45:14;12.30;98.90
52979;DHT22;51106;53.186;6.598;2022-09-02T01:47:20;12.30;98.70
52979;DHT22;51106;53.186;6.598;2022-09-02T01:49:22;12.30;98.70
52979;DHT22;51106;53.186;6.598;2022-09-02T01:51:24;12.30;98.60
52979;DHT22;51106;53.186;6.598;2022-09-02T01:53:27;12.30;98.50
52979;DHT22;51106;53.186;6.598;2022-09-02T01:55:30;12.30;98.50
52979;DHT22;51106;53.186;6.598;2022-09-02T01:57:33;12.30;98.40
52979;DHT22;51106;53.186;6.598;2022-09-02T01:59:35;12.30;98.40
52979;DHT22;51106;53.186;6.598;2022-09-02T02:01:37;12.30;98.50
52979;DHT22;51106;53.186;6.598;2022-09-02T02:03:39;12.30;98.50
52979;DHT22;51106;53.186;6.598;2022-09-02T02:05:42;12.30;98.50
52979;DHT22;51106;53.186;6.598;2022-09-02T02:07:44;12.30;98.40
52979;DHT22;51106;53.186;6.598;2022-09-02T02:09:46;12.30;98.60
52979;DHT22;51106;53.186;6.598;2022-09-02T02:11:49;12.90;98.90
52979;DHT22;51106;53.186;6.598;2022-09-02T02:13:51;12.20;98.90
52979;DHT22;51106;53.186;6.598;2022-09-02T02:15:54;12.30;98.90
52979;DHT22;51106;53.186;6.598;2022-09-02T02:17:56;12.20;98.70
52979;DHT22;51106;53.186;6.598;2022-09-02T02:20:00;12.20;98.70
52979;DHT22;51106;53.186;6.598;2022-09-02T02:22:03;12.20;99.70
52979;DHT22;51106;53.186;6.598;2022-09-02T02:24:05;12.10;98.40
52979;DHT22;51106;53.186;6.598;2022-09-02T02:26:08;12.10;98.40
52979;DHT22;51106;53.186;6.598;2022-09-02T02:28:10;12.10;98.40
52979;DHT22;51106;53.186;6.598;2022-09-02T02:30:13;12.10;98.50
52979;DHT22;51106;53.186;6.598;2022-09-02T02:32:16;12.10;98.40
52979;DHT22;51106;53.186;6.598;2022-09-02T02:34:21;12.00;98.50
52979;DHT22;51106;53.186;6.598;2022-09-02T02:36:24;12.00;98.70
52979;DHT22;51106;53.186;6.598;2022-09-02T02:38:26;12.00;98.80
52979;DHT22;51106;53.186;6.598;2022-09-02T02:40:28;12.00;98.80
52979;DHT22;51106;53.186;6.598;2022-09-02T02:42:30;12.00;98.70
52979;DHT22;51106;53.186;6.598;2022-09-02T02:44:32;12.00;98.70
52979;DHT22;51106;53.186;6.598;2022-09-02T02:46:34;12.00;98.60
52979;DHT22;51106;53.186;6.598;2022-09-02T02:48:37;12.00;98.50
52979;DHT22;51106;53.186;6.598;2022-09-02T02:50:39;12.00;98.40
52979;DHT22;51106;53.186;6.598;2022-09-02T02:52:42;12.00;98.40
52979;DHT22;51106;53.186;6.598;2022-09-02T02:54:44;12.00;98.50
52979;DHT22;51106;53.186;6.598;2022-09-02T02:56:46;11.90;98.30
52979;DHT22;51106;53.186;6.598;2022-09-02T02:58:48;11.90;98.40
52979;DHT22;51106;53.186;6.598;2022-09-02T03:00:51;11.90;98.50
52979;DHT22;51106;53.186;6.598;2022-09-02T03:03:02;11.90;98.60
52979;DHT22;51106;53.186;6.598;2022-09-02T03:05:07;11.90;98.90
52979;DHT22;51106;53.186;6.598;2022-09-02T03:07:09;11.80;98.70
52979;DHT22;51106;53.186;6.598;2022-09-02T03:09:11;11.80;98.70
52979;DHT22;51106;53.186;6.598;2022-09-02T03:11:14;11.80;98.50
52979;DHT22;51106;53.186;6.598;2022-09-02T03:13:16;11.80;98.40
52979;DHT22;51106;53.186;6.598;2022-09-02T03:15:19;11.80;98.40
52979;DHT22;51106;53.186;6.598;2022-09-02T03:17:21;11.80;98.80
52979;DHT22;51106;53.186;6.598;2022-09-02T03:19:24;11.80;98.80
52979;DHT22;51106;53.186;6.598;2022-09-02T03:21:26;11.70;98.70
52979;DHT22;51106;53.186;6.598;2022-09-02T03:23:36;11.70;98.70
52979;DHT22;51106;53.186;6.598;2022-09-02T03:25:41;11.70;98.90
52979;DHT22;51106;53.186;6.598;2022-09-02T03:27:43;11.70;98.90
52979;DHT22;51106;53.186;6.598;2022-09-02T03:29:48;11.70;98.80
52979;DHT22;51106;53.186;6.598;2022-09-02T03:31:50;11.70;98.80
52979;DHT22;51106;53.186;6.598;2022-09-02T03:33:54;11.60;98.70
52979;DHT22;51106;53.186;6.598;2022-09-02T03:35:58;11.60;98.80
52979;DHT22;51106;53.186;6.598;2022-09-02T03:38:00;11.60;99.10
52979;DHT22;51106;53.186;6.598;2022-09-02T03:40:08;11.60;99.10
52979;DHT22;51106;53.186;6.598;2022-09-02T03:42:11;11.60;99.10
52979;DHT22;51106;53.186;6.598;2022-09-02T03:44:20;11.50;99.00
52979;DHT22;51106;53.186;6.598;2022-09-02T03:46:22;11.50;99.30
52979;DHT22;51106;53.186;6.598;2022-09-02T03:48:24;11.50;99.20
52979;DHT22;51106;53.186;6.598;2022-09-02T03:50:29;11.50;99.20
52979;DHT22;51106;53.186;6.598;2022-09-02T03:52:32;11.50;99.20
52979;DHT22;51106;53.186;6.598;2022-09-02T03:54:33;11.40;99.20
52979;DHT22;51106;53.186;6.598;2022-09-02T03:56:36;11.40;99.30
52979;DHT22;51106;53.186;6.598;2022-09-02T03:58:38;11.40;99.40
52979;DHT22;51106;53.186;6.598;2022-09-02T04:00:42;11.30;99.40
52979;DHT22;51106;53.186;6.598;2022-09-02T04:02:44;11.30;99.40
52979;DHT22;51106;53.186;6.598;2022-09-02T04:04:51;11.30;99.40
52979;DHT22;51106;53.186;6.598;2022-09-02T04:06:52;11.30;99.40
52979;DHT22;51106;53.186;6.598;2022-09-02T04:08:54;11.20;99.40
52979;DHT22;51106;53.186;6.598;2022-09-02T04:10:57;11.20;99.60
52979;DHT22;51106;53.186;6.598;2022-09-02T04:12:59;11.20;99.80
52979;DHT22;51106;53.186;6.598;2022-09-02T04:15:03;11.10;99.80
52979;DHT22;51106;53.186;6.598;2022-09-02T04:17:05;11.30;99.90
52979;DHT22;51106;53.186;6.598;2022-09-02T04:19:08;11.10;99.90
52979;DHT22;51106;53.186;6.598;2022-09-02T04:21:11;11.10;99.90
52979;DHT22;51106;53.186;6.598;2022-09-02T04:23:14;11.10;99.90
52979;DHT22;51106;53.186;6.598;2022-09-02T04:25:16;11.10;99.90
52979;DHT22;51106;53.186;6.598;2022-09-02T04:27:18;11.00;99.90
52979;DHT22;51106;53.186;6.598;2022-09-02T04:29:20;11.00;99.90
52979;DHT22;51106;53.186;6.598;2022-09-02T04:31:23;11.00;99.90
52979;DHT22;51106;53.186;6.598;2022-09-02T04:33:26;11.00;99.90
52979;DHT22;51106;53.186;6.598;2022-09-02T04:35:28;11.00;99.90
52979;DHT22;51106;53.186;6.598;2022-09-02T04:37:31;11.00;99.90
52979;DHT22;51106;53.186;6.598;2022-09-02T04:39:34;11.00;99.90
52979;DHT22;51106;53.186;6.598;2022-09-02T04:41:36;11.00;99.90
52979;DHT22;51106;53.186;6.598;2022-09-02T04:43:39;11.00;99.90
52979;DHT22;51106;53.186;6.598;2022-09-02T04:45:43;11.00;99.90
52979;DHT22;51106;53.186;6.598;2022-09-02T04:47:45;11.00;99.90
52979;DHT22;51106;53.186;6.598;2022-09-02T04:49:50;11.00;99.90
52979;DHT22;51106;53.186;6.598;2022-09-02T04:51:52;11.10;99.90
52979;DHT22;51106;53.186;6.598;2022-09-02T04:53:55;11.00;99.90
52979;DHT22;51106;53.186;6.598;2022-09-02T04:55:57;11.00;99.90
52979;DHT22;51106;53.186;6.598;2022-09-02T04:57:59;11.10;99.90
52979;DHT22;51106;53.186;6.598;2022-09-02T05:00:05;11.00;99.90
52979;DHT22;51106;53.186;6.598;2022-09-02T05:02:07;11.10;99.90
52979;DHT22;51106;53.186;6.598;2022-09-02T05:04:10;11.10;99.90
52979;DHT22;51106;53.186;6.598;2022-09-02T05:06:15;11.10;99.90
52979;DHT22;51106;53.186;6.598;2022-09-02T05:08:19;11.00;99.90
52979;DHT22;51106;53.186;6.598;2022-09-02T05:10:24;11.10;99.90
52979;DHT22;51106;53.186;6.598;2022-09-02T05:12:26;11.20;99.90
52979;DHT22;51106;53.186;6.598;2022-09-02T05:14:29;11.10;99.90
52979;DHT22;51106;53.186;6.598;2022-09-02T05:16:35;11.10;99.90
52979;DHT22;51106;53.186;6.598;2022-09-02T05:18:38;11.10;99.90
52979;DHT22;51106;53.186;6.598;2022-09-02T05:20:40;11.10;99.90
52979;DHT22;51106;53.186;6.598;2022-09-02T05:22:44;11.10;99.90
52979;DHT22;51106;53.186;6.598;2022-09-02T05:24:46;11.10;99.90
52979;DHT22;51106;53.186;6.598;2022-09-02T05:26:48;11.20;99.90
52979;DHT22;51106;53.186;6.598;2022-09-02T05:28:51;11.20;99.90
52979;DHT22;51106;53.186;6.598;2022-09-02T05:30:53;11.20;99.90
52979;DHT22;51106;53.186;6.598;2022-09-02T05:32:55;11.30;99.90
52979;DHT22;51106;53.186;6.598;2022-09-02T05:34:57;11.30;99.90
52979;DHT22;51106;53.186;6.598;2022-09-02T05:37:00;11.30;99.90
52979;DHT22;51106;53.186;6.598;2022-09-02T05:39:03;11.40;99.90
52979;DHT22;51106;53.186;6.598;2022-09-02T05:41:10;11.50;99.90
52979;DHT22;51106;53.186;6.598;2022-09-02T05:43:13;11.60;99.90
52979;DHT22;51106;53.186;6.598;2022-09-02T05:45:15;11.60;99.90
52979;DHT22;51106;53.186;6.598;2022-09-02T05:47:17;11.60;99.90
52979;DHT22;51106;53.186;6.598;2022-09-02T05:49:19;11.70;99.90
52979;DHT22;51106;53.186;6.598;2022-09-02T05:51:23;11.70;99.90
52979;DHT22;51106;53.186;6.598;2022-09-02T05:53:25;11.80;99.90
52979;DHT22;51106;53.186;6.598;2022-09-02T05:55:28;11.90;99.90
52979;DHT22;51106;53.186;6.598;2022-09-02T05:57:30;11.90;99.90
52979;DHT22;51106;53.186;6.598;2022-09-02T05:59:32;12.30;99.90
52979;DHT22;51106;53.186;6.598;2022-09-02T06:01:39;12.10;99.90
52979;DHT22;51106;53.186;6.598;2022-09-02T06:03:42;12.20;99.90
52979;DHT22;51106;53.186;6.598;2022-09-02T06:05:57;12.20;99.90
52979;DHT22;51106;53.186;6.598;2022-09-02T06:08:06;12.30;99.90
52979;DHT22;51106;53.186;6.598;2022-09-02T06:10:08;12.40;99.90
52979;DHT22;51106;53.186;6.598;2022-09-02T06:12:11;12.40;99.90
52979;DHT22;51106;53.186;6.598;2022-09-02T06:14:19;12.50;99.90
52979;DHT22;51106;53.186;6.598;2022-09-02T06:16:22;12.60;99.90
52979;DHT22;51106;53.186;6.598;2022-09-02T06:18:25;12.90;99.90
52979;DHT22;51106;53.186;6.598;2022-09-02T06:20:27;12.80;99.90
52979;DHT22;51106;53.186;6.598;2022-09-02T06:22:32;12.90;99.90
52979;DHT22;51106;53.186;6.598;2022-09-02T06:24:34;13.20;99.90
52979;DHT22;51106;53.186;6.598;2022-09-02T06:26:38;13.20;99.90
52979;DHT22;51106;53.186;6.598;2022-09-02T06:28:40;13.30;99.90
52979;DHT22;51106;53.186;6.598;2022-09-02T06:30:44;13.50;99.90
52979;DHT22;51106;53.186;6.598;2022-09-02T06:32:47;13.60;99.70
52979;DHT22;51106;53.186;6.598;2022-09-02T06:34:51;13.70;99.40
52979;DHT22;51106;53.186;6.598;2022-09-02T06:36:53;13.80;99.20
52979;DHT22;51106;53.186;6.598;2022-09-02T06:38:57;14.00;99.10
52979;DHT22;51106;53.186;6.598;2022-09-02T06:41:00;14.20;99.00
52979;DHT22;51106;53.186;6.598;2022-09-02T06:43:02;14.30;98.80
52979;DHT22;51106;53.186;6.598;2022-09-02T06:45:05;14.50;98.60
52979;DHT22;51106;53.186;6.598;2022-09-02T06:47:07;14.60;98.30
52979;DHT22;51106;53.186;6.598;2022-09-02T06:49:10;14.70;98.00
52979;DHT22;51106;53.186;6.598;2022-09-02T06:51:20;14.80;97.80
52979;DHT22;51106;53.186;6.598;2022-09-02T06:53:22;15.00;97.50
52979;DHT22;51106;53.186;6.598;2022-09-02T06:55:25;15.10;97.20
52979;DHT22;51106;53.186;6.598;2022-09-02T06:57:27;15.20;96.80
52979;DHT22;51106;53.186;6.598;2022-09-02T06:59:34;15.30;96.60
52979;DHT22;51106;53.186;6.598;2022-09-02T07:01:37;15.40;96.30
52979;DHT22;51106;53.186;6.598;2022-09-02T07:03:39;15.50;96.30
52979;DHT22;51106;53.186;6.598;2022-09-02T07:06:08;15.70;96.20
52979;DHT22;51106;53.186;6.598;2022-09-02T07:08:11;15.80;95.80
52979;DHT22;51106;53.186;6.598;2022-09-02T07:10:14;15.90;95.60
52979;DHT22;51106;53.186;6.598;2022-09-02T07:12:16;16.00;95.40
52979;DHT22;51106;53.186;6.598;2022-09-02T07:14:20;16.00;95.00
52979;DHT22;51106;53.186;6.598;2022-09-02T07:16:22;16.10;94.80
52979;DHT22;51106;53.186;6.598;2022-09-02T07:18:28;16.20;94.70
52979;DHT22;51106;53.186;6.598;2022-09-02T07:20:29;16.30;94.60
52979;DHT22;51106;53.186;6.598;2022-09-02T07:22:32;16.40;94.30
52979;DHT22;51106;53.186;6.598;2022-09-02T07:24:35;16.50;94.20
52979;DHT22;51106;53.186;6.598;2022-09-02T07:26:37;16.50;93.80
52979;DHT22;51106;53.186;6.598;2022-09-02T07:28:40;16.60;93.60
52979;DHT22;51106;53.186;6.598;2022-09-02T07:30:43;16.70;93.40
52979;DHT22;51106;53.186;6.598;2022-09-02T07:32:46;16.70;92.80
52979;DHT22;51106;53.186;6.598;2022-09-02T07:34:48;16.90;92.70
52979;DHT22;51106;53.186;6.598;2022-09-02T07:36:50;16.90;92.60
52979;DHT22;51106;53.186;6.598;2022-09-02T07:38:53;17.00;92.30
52979;DHT22;51106;53.186;6.598;2022-09-02T07:40:55;17.10;91.90
52979;DHT22;51106;53.186;6.598;2022-09-02T07:42:58;17.20;91.50
52979;DHT22;51106;53.186;6.598;2022-09-02T07:45:00;17.40;91.30
52979;DHT22;51106;53.186;6.598;2022-09-02T07:47:03;17.40;91.00
52979;DHT22;51106;53.186;6.598;2022-09-02T07:49:08;17.40;90.50
52979;DHT22;51106;53.186;6.598;2022-09-02T07:51:11;17.50;90.40
52979;DHT22;51106;53.186;6.598;2022-09-02T07:53:13;17.60;90.40
52979;DHT22;51106;53.186;6.598;2022-09-02T07:55:17;17.70;90.00
52979;DHT22;51106;53.186;6.598;2022-09-02T07:57:19;17.70;89.50
52979;DHT22;51106;53.186;6.598;2022-09-02T07:59:21;17.80;89.70
52979;DHT22;51106;53.186;6.598;2022-09-02T08:01:23;17.90;88.70
52979;DHT22;51106;53.186;6.598;2022-09-02T08:03:26;18.00;88.40
52979;DHT22;51106;53.186;6.598;2022-09-02T08:05:29;18.10;87.60
52979;DHT22;51106;53.186;6.598;2022-09-02T08:07:32;18.20;86.70
52979;DHT22;51106;53.186;6.598;2022-09-02T08:09:34;18.20;86.30
52979;DHT22;51106;53.186;6.598;2022-09-02T08:11:40;18.30;85.90
52979;DHT22;51106;53.186;6.598;2022-09-02T08:13:43;18.40;85.00
52979;DHT22;51106;53.186;6.598;2022-09-02T08:15:46;18.60;85.00
52979;DHT22;51106;53.186;6.598;2022-09-02T08:17:51;18.60;85.10
52979;DHT22;51106;53.186;6.598;2022-09-02T08:19:53;18.70;84.80
52979;DHT22;51106;53.186;6.598;2022-09-02T08:22:03;18.80;83.40
52979;DHT22;51106;53.186;6.598;2022-09-02T08:24:06;18.90;81.50
52979;DHT22;51106;53.186;6.598;2022-09-02T08:26:08;19.00;82.00
52979;DHT22;51106;53.186;6.598;2022-09-02T08:28:11;19.00;80.90
52979;DHT22;51106;53.186;6.598;2022-09-02T08:30:14;19.00;81.20
52979;DHT22;51106;53.186;6.598;2022-09-02T08:32:16;19.20;81.60
52979;DHT22;51106;53.186;6.598;2022-09-02T08:34:18;19.30;81.20
52979;DHT22;51106;53.186;6.598;2022-09-02T08:36:20;19.40;80.50
52979;DHT22;51106;53.186;6.598;2022-09-02T08:38:22;19.50;79.80
52979;DHT22;51106;53.186;6.598;2022-09-02T08:40:33;19.50;78.00
52979;DHT22;51106;53.186;6.598;2022-09-02T08:42:37;19.60;76.60
52979;DHT22;51106;53.186;6.598;2022-09-02T08:44:44;19.70;76.70
52979;DHT22;51106;53.186;6.598;2022-09-02T08:46:49;19.70;75.60
52979;DHT22;51106;53.186;6.598;2022-09-02T08:48:57;19.70;75.00
52979;DHT22;51106;53.186;6.598;2022-09-02T08:51:04;19.80;73.50
52979;DHT22;51106;53.186;6.598;2022-09-02T08:53:25;19.80;72.70
52979;DHT22;51106;53.186;6.598;2022-09-02T08:55:36;19.90;72.10
52979;DHT22;51106;53.186;6.598;2022-09-02T08:57:40;20.00;71.60
52979;DHT22;51106;53.186;6.598;2022-09-02T08:59:45;20.20;71.50
52979;DHT22;51106;53.186;6.598;2022-09-02T09:02:06;20.20;71.10
52979;DHT22;51106;53.186;6.598;2022-09-02T09:12:11;20.90;70.70
52979;DHT22;51106;53.186;6.598;2022-09-02T09:16:58;21.30;68.20
52979;DHT22;51106;53.186;6.598;2022-09-02T09:21:16;21.40;63.10
52979;DHT22;51106;53.186;6.598;2022-09-02T09:23:30;21.40;63.70
52979;DHT22;51106;53.186;6.598;2022-09-02T09:25:35;21.40;61.70
52979;DHT22;51106;53.186;6.598;2022-09-02T09:27:37;21.40;60.50
52979;DHT22;51106;53.186;6.598;2022-09-02T09:29:39;21.50;60.20
52979;DHT22;51106;53.186;6.598;2022-09-02T09:31:43;21.50;59.30
52979;DHT22;51106;53.186;6.598;2022-09-02T09:33:58;21.60;60.10
52979;DHT22;51106;53.186;6.598;2022-09-02T09:36:03;21.70;58.00
52979;DHT22;51106;53.186;6.598;2022-09-02T09:38:12;21.70;57.20
52979;DHT22;51106;53.186;6.598;2022-09-02T09:42:33;21.90;57.40
52979;DHT22;51106;53.186;6.598;2022-09-02T09:46:40;22.10;57.00
52979;DHT22;51106;53.186;6.598;2022-09-02T09:48:48;22.10;56.10
52979;DHT22;51106;53.186;6.598;2022-09-02T09:53:28;22.30;54.20
52979;DHT22;51106;53.186;6.598;2022-09-02T09:55:30;22.50;52.50
52979;DHT22;51106;53.186;6.598;2022-09-02T09:57:32;22.50;52.40
52979;DHT22;51106;53.186;6.598;2022-09-02T09:59:47;22.60;52.80
52979;DHT22;51106;53.186;6.598;2022-09-02T10:01:50;22.60;50.90
52979;DHT22;51106;53.186;6.598;2022-09-02T10:05:57;22.80;52.50
52979;DHT22;51106;53.186;6.598;2022-09-02T10:08:03;22.90;51.80
52979;DHT22;51106;53.186;6.598;2022-09-02T10:10:23;22.90;51.20
52979;DHT22;51106;53.186;6.598;2022-09-02T10:12:32;23.00;51.20
52979;DHT22;51106;53.186;6.598;2022-09-02T10:14:40;23.10;51.50
52979;DHT22;51106;53.186;6.598;2022-09-02T10:17:05;23.20;51.10
52979;DHT22;51106;53.186;6.598;2022-09-02T10:19:25;23.30;49.70
52979;DHT22;51106;53.186;6.598;2022-09-02T10:26:42;23.50;48.10
52979;DHT22;51106;53.186;6.598;2022-09-02T10:33:29;23.40;47.30
52979;DHT22;51106;53.186;6.598;2022-09-02T10:35:42;23.50;47.50
52979;DHT22;51106;53.186;6.598;2022-09-02T10:40:15;23.70;47.60
52979;DHT22;51106;53.186;6.598;2022-09-02T10:42:42;23.80;46.40
52979;DHT22;51106;53.186;6.598;2022-09-02T10:45:00;23.70;46.70
52979;DHT22;51106;53.186;6.598;2022-09-02T10:47:26;23.70;45.20
52979;DHT22;51106;53.186;6.598;2022-09-02T10:49:37;23.80;45.70
52979;DHT22;51106;53.186;6.598;2022-09-02T10:52:02;23.90;45.20
52979;DHT22;51106;53.186;6.598;2022-09-02T10:54:24;23.90;45.30
52979;DHT22;51106;53.186;6.598;2022-09-02T10:56:34;24.10;44.90
52979;DHT22;51106;53.186;6.598;2022-09-02T10:58:58;24.10;45.50
52979;DHT22;51106;53.186;6.598;2022-09-02T11:01:06;24.20;45.90
52979;DHT22;51106;53.186;6.598;2022-09-02T11:03:40;24.20;45.40
52979;DHT22;51106;53.186;6.598;2022-09-02T11:05:53;24.30;43.50
52979;DHT22;51106;53.186;6.598;2022-09-02T11:08:09;24.30;44.00
52979;DHT22;51106;53.186;6.598;2022-09-02T11:10:27;24.30;42.90
52979;DHT22;51106;53.186;6.598;2022-09-02T11:12:38;24.30;42.50
52979;DHT22;51106;53.186;6.598;2022-09-02T11:17:27;24.40;42.70
52979;DHT22;51106;53.186;6.598;2022-09-02T11:19:34;24.60;43.70
52979;DHT22;51106;53.186;6.598;2022-09-02T11:26:15;24.60;42.70
52979;DHT22;51106;53.186;6.598;2022-09-02T11:28:38;24.60;42.10
52979;DHT22;51106;53.186;6.598;2022-09-02T11:30:48;24.60;41.50
52979;DHT22;51106;53.186;6.598;2022-09-02T11:35:34;24.70;41.80
52979;DHT22;51106;53.186;6.598;2022-09-02T11:37:46;24.60;40.80
52979;DHT22;51106;53.186;6.598;2022-09-02T11:39:54;24.60;41.60
52979;DHT22;51106;53.186;6.598;2022-09-02T11:42:38;24.70;42.40
52979;DHT22;51106;53.186;6.598;2022-09-02T11:49:46;24.90;42.20
52979;DHT22;51106;53.186;6.598;2022-09-02T11:51:57;24.90;40.80
52979;DHT22;51106;53.186;6.598;2022-09-02T11:54:03;25.00;41.60
52979;DHT22;51106;53.186;6.598;2022-09-02T11:56:17;24.90;40.70
52979;DHT22;51106;53.186;6.598;2022-09-02T11:58:49;24.90;40.70
52979;DHT22;51106;53.186;6.598;2022-09-02T12:07:46;25.20;41.30
52979;DHT22;51106;53.186;6.598;2022-09-02T12:09:54;25.30;40.50
52979;DHT22;51106;53.186;6.598;2022-09-02T12:11:57;25.30;39.80
52979;DHT22;51106;53.186;6.598;2022-09-02T12:13:59;25.30;40.20
52979;DHT22;51106;53.186;6.598;2022-09-02T12:18:27;25.40;39.90
52979;DHT22;51106;53.186;6.598;2022-09-02T12:22:42;25.50;37.50
52979;DHT22;51106;53.186;6.598;2022-09-02T12:24:54;25.50;39.70
52979;DHT22;51106;53.186;6.598;2022-09-02T12:31:39;25.60;37.80
52979;DHT22;51106;53.186;6.598;2022-09-02T12:33:48;25.60;38.00
52979;DHT22;51106;53.186;6.598;2022-09-02T12:35:53;25.60;38.70
52979;DHT22;51106;53.186;6.598;2022-09-02T12:38:16;25.50;37.70
52979;DHT22;51106;53.186;6.598;2022-09-02T12:40:29;25.60;38.10
52979;DHT22;51106;53.186;6.598;2022-09-02T12:42:34;25.60;37.10
52979;DHT22;51106;53.186;6.598;2022-09-02T12:47:28;25.60;35.10
52979;DHT22;51106;53.186;6.598;2022-09-02T12:51:53;25.80;37.10
52979;DHT22;51106;53.186;6.598;2022-09-02T12:53:56;25.80;35.40
52979;DHT22;51106;53.186;6.598;2022-09-02T12:56:04;25.90;36.60
52979;DHT22;51106;53.186;6.598;2022-09-02T12:58:12;25.90;36.60
52979;DHT22;51106;53.186;6.598;2022-09-02T13:05:49;25.90;36.30
52979;DHT22;51106;53.186;6.598;2022-09-02T13:15:22;26.10;35.90
52979;DHT22;51106;53.186;6.598;2022-09-02T13:17:34;26.20;35.80
52979;DHT22;51106;53.186;6.598;2022-09-02T13:22:49;26.30;35.80
52979;DHT22;51106;53.186;6.598;2022-09-02T13:32:11;26.20;35.50
52979;DHT22;51106;53.186;6.598;2022-09-02T13:34:13;26.30;33.90
52979;DHT22;51106;53.186;6.598;2022-09-02T13:36:26;26.30;35.40
52979;DHT22;51106;53.186;6.598;2022-09-02T13:38:29;26.30;34.50
52979;DHT22;51106;53.186;6.598;2022-09-02T13:40:36;26.20;36.00
52979;DHT22;51106;53.186;6.598;2022-09-02T13:42:52;26.20;35.40
52979;DHT22;51106;53.186;6.598;2022-09-02T13:45:18;26.10;34.60
52979;DHT22;51106;53.186;6.598;2022-09-02T13:47:21;26.10;34.90
52979;DHT22;51106;53.186;6.598;2022-09-02T13:49:26;26.20;35.80
52979;DHT22;51106;53.186;6.598;2022-09-02T13:51:28;26.20;34.20
52979;DHT22;51106;53.186;6.598;2022-09-02T13:53:34;26.20;34.90
52979;DHT22;51106;53.186;6.598;2022-09-02T13:55:57;26.20;34.10
52979;DHT22;51106;53.186;6.598;2022-09-02T13:58:05;26.20;34.50
52979;DHT22;51106;53.186;6.598;2022-09-02T14:00:08;26.20;34.80
52979;DHT22;51106;53.186;6.598;2022-09-02T14:04:23;26.10;35.00
52979;DHT22;51106;53.186;6.598;2022-09-02T14:06:29;26.20;34.70
52979;DHT22;51106;53.186;6.598;2022-09-02T14:08:34;26.20;33.80
52979;DHT22;51106;53.186;6.598;2022-09-02T14:10:36;26.00;34.00
52979;DHT22;51106;53.186;6.598;2022-09-02T14:12:39;26.00;34.70
52979;DHT22;51106;53.186;6.598;2022-09-02T14:14:42;26.00;35.20
52979;DHT22;51106;53.186;6.598;2022-09-02T14:16:44;26.00;35.00
52979;DHT22;51106;53.186;6.598;2022-09-02T14:19:09;25.80;34.50
52979;DHT22;51106;53.186;6.598;2022-09-02T14:21:18;25.80;34.10
52979;DHT22;51106;53.186;6.598;2022-09-02T14:23:20;25.70;34.00
52979;DHT22;51106;53.186;6.598;2022-09-02T14:25:24;25.70;34.20
52979;DHT22;51106;53.186;6.598;2022-09-02T14:27:28;25.70;34.80
52979;DHT22;51106;53.186;6.598;2022-09-02T14:29:32;25.70;34.60
52979;DHT22;51106;53.186;6.598;2022-09-02T14:31:34;25.60;35.10
52979;DHT22;51106;53.186;6.598;2022-09-02T14:33:43;25.60;34.90
52979;DHT22;51106;53.186;6.598;2022-09-02T14:35:56;25.60;34.30
52979;DHT22;51106;53.186;6.598;2022-09-02T14:37:59;25.60;33.70
52979;DHT22;51106;53.186;6.598;2022-09-02T14:40:08;25.50;34.00
52979;DHT22;51106;53.186;6.598;2022-09-02T14:42:12;25.50;34.80
52979;DHT22;51106;53.186;6.598;2022-09-02T14:44:32;25.40;34.50
52979;DHT22;51106;53.186;6.598;2022-09-02T14:46:38;25.40;33.30
52979;DHT22;51106;53.186;6.598;2022-09-02T14:48:51;25.40;34.60